createdAt,value
2019-05-07T00:00:44.105Z,99169.00
2019-05-07T00:03:12.373Z,99167.48
2019-05-07T00:05:39.421Z,99160.05
2019-05-07T00:08:06.287Z,99159.14
2019-05-07T00:10:33.327Z,99151.52
2019-05-07T00:13:02.238Z,99148.80
2019-05-07T00:15:29.927Z,99147.77
2019-05-07T00:17:57.105Z,99150.75
2019-05-07T00:20:24.276Z,99144.86
2019-05-07T00:22:53.262Z,99147.50
2019-05-07T00:25:19.838Z,99138.48
2019-05-07T00:27:46.934Z,99135.84
2019-05-07T00:30:14.679Z,99139.61
2019-05-07T00:32:42.434Z,99130.70
2019-05-07T00:35:13.063Z,99134.84
2019-05-07T00:37:45.011Z,99134.02
2019-05-07T00:40:24.458Z,99128.54
2019-05-07T00:43:12.007Z,99118.99
2019-05-07T00:45:44.875Z,99119.90
2019-05-07T00:48:14.121Z,99115.92
2019-05-07T00:50:44.542Z,99115.66
2019-05-07T00:53:13.362Z,99114.36
2019-05-07T00:55:42.160Z,99121.09
2019-05-07T00:58:09.076Z,99116.65
2019-05-07T01:00:37.190Z,99117.35
2019-05-07T01:03:04.184Z,99112.33
2019-05-07T01:05:32.607Z,99110.02
2019-05-07T01:08:02.377Z,99113.58
2019-05-07T01:10:32.964Z,99111.90
2019-05-07T01:12:59.792Z,99112.34
2019-05-07T01:15:32.105Z,99107.00
2019-05-07T01:17:59.596Z,99111.64
2019-05-07T01:20:32.767Z,99109.52
2019-05-07T01:23:02.616Z,99103.58
2019-05-07T01:25:29.589Z,99102.29
2019-05-07T01:27:56.377Z,99099.54
2019-05-07T01:30:23.250Z,99104.67
2019-05-07T01:32:55.429Z,99100.95
2019-05-07T01:35:24.153Z,99097.49
2019-05-07T01:37:52.437Z,99098.33
2019-05-07T01:40:19.462Z,99091.42
2019-05-07T01:42:46.415Z,99093.40
2019-05-07T01:45:16.683Z,99092.97
2019-05-07T01:47:43.536Z,99094.24
2019-05-07T01:50:13.209Z,99091.11
2019-05-07T01:52:39.966Z,99093.95
2019-05-07T01:55:07.069Z,99093.87
2019-05-07T01:57:34.311Z,99098.65
2019-05-07T02:00:02.621Z,99091.29
2019-05-07T02:02:32.191Z,99091.20
2019-05-07T02:05:03.232Z,99090.11
2019-05-07T02:07:36.875Z,99094.86
2019-05-07T02:10:19.123Z,99092.73
2019-05-07T02:12:45.930Z,99092.73
2019-05-07T02:15:13.298Z,99091.53
2019-05-07T02:17:42.856Z,99095.34
2019-05-07T02:20:12.924Z,99087.83
2019-05-07T02:22:39.563Z,99087.19
2019-05-07T02:25:07.285Z,99087.06
2019-05-07T02:27:34.059Z,99084.95
2019-05-07T02:30:04.171Z,99080.84
2019-05-07T02:32:33.121Z,99090.67
2019-05-07T02:34:59.377Z,99088.56
2019-05-07T02:37:35.760Z,99087.34
2019-05-07T02:40:07.476Z,99086.29
2019-05-07T02:42:34.775Z,99081.63
2019-05-07T02:45:05.306Z,99087.47
2019-05-07T02:47:33.512Z,99086.07
2019-05-07T02:50:07.934Z,99091.89
2019-05-07T02:52:53.840Z,99087.02
2019-05-07T02:55:23.461Z,99090.92
2019-05-07T02:57:54.000Z,99084.82
2019-05-07T03:00:23.780Z,99089.70
2019-05-07T03:02:49.377Z,99085.48
2019-05-07T03:05:16.313Z,99084.82
2019-05-07T03:07:43.907Z,99088.64
2019-05-07T03:10:13.866Z,99083.80
2019-05-07T03:12:42.982Z,99092.60
2019-05-07T03:15:12.960Z,99091.57
2019-05-07T03:17:38.801Z,99094.42
2019-05-07T03:20:08.511Z,99096.56
2019-05-07T03:22:35.501Z,99092.91
2019-05-07T03:25:06.026Z,99096.56
2019-05-07T03:27:34.101Z,99097.25
2019-05-07T03:30:10.165Z,99093.25
2019-05-07T03:32:40.371Z,99093.72
2019-05-07T03:35:28.714Z,99087.81
2019-05-07T03:37:56.705Z,99087.73
2019-05-07T03:40:25.649Z,99084.11
2019-05-07T03:42:53.492Z,99091.28
2019-05-07T03:45:25.739Z,99086.70
2019-05-07T03:48:03.710Z,99083.88
2019-05-07T03:50:30.213Z,99093.09
2019-05-07T03:52:57.005Z,99090.47
2019-05-07T03:55:23.819Z,99095.25
2019-05-07T03:57:52.818Z,99087.13
2019-05-07T04:00:19.981Z,99088.75
2019-05-07T04:02:46.969Z,99097.50
2019-05-07T04:05:14.498Z,99091.00
2019-05-07T04:07:43.099Z,99088.47
2019-05-07T04:10:14.485Z,99093.25
2019-05-07T04:12:39.152Z,99092.68
2019-05-07T04:15:06.827Z,99092.27
2019-05-07T04:17:34.116Z,99097.20
2019-05-07T04:20:04.503Z,99094.05
2019-05-07T04:22:30.399Z,99093.45
2019-05-07T04:24:59.926Z,99095.83
2019-05-07T04:27:47.206Z,99101.41
2019-05-07T04:30:14.516Z,99098.45
2019-05-07T04:32:43.590Z,99100.55
2019-05-07T04:35:26.486Z,99102.44
2019-05-07T04:37:53.465Z,99101.33
2019-05-07T04:40:23.725Z,99099.59
2019-05-07T04:42:49.286Z,99100.77
2019-05-07T04:45:16.382Z,99100.58
2019-05-07T04:47:47.576Z,99101.63
2019-05-07T04:50:14.260Z,99097.95
2019-05-07T04:52:43.669Z,99096.88
2019-05-07T04:55:13.837Z,99097.05
2019-05-07T04:57:40.153Z,99087.78
2019-05-07T05:00:09.780Z,99094.70
2019-05-07T05:02:53.649Z,99089.13
2019-05-07T05:05:23.515Z,99096.95
2019-05-07T05:07:53.146Z,99098.96
2019-05-07T05:10:22.757Z,99099.16
2019-05-07T05:12:48.549Z,99104.69
2019-05-07T05:15:15.659Z,99101.34
2019-05-07T05:17:50.416Z,99101.69
2019-05-07T05:20:13.182Z,99099.77
2019-05-07T05:22:58.995Z,99100.14
2019-05-07T05:25:27.768Z,99093.77
2019-05-07T05:27:54.564Z,99095.51
2019-05-07T05:30:29.748Z,99096.73
2019-05-07T05:32:56.569Z,99095.27
2019-05-07T05:35:23.914Z,99092.61
2019-05-07T05:37:52.080Z,99095.09
2019-05-07T05:40:19.684Z,99098.12
2019-05-07T05:42:48.533Z,99097.98
2019-05-07T05:45:21.787Z,99086.20
2019-05-07T05:48:01.999Z,99096.30
2019-05-07T05:50:17.445Z,99093.56
2019-05-07T05:52:46.660Z,99090.44
2019-05-07T05:55:14.277Z,99088.61
2019-05-07T05:57:46.004Z,99090.86
2019-05-07T06:00:15.358Z,99089.20
2019-05-07T06:02:53.188Z,99096.06
2019-05-07T06:05:37.301Z,99087.88
2019-05-07T06:08:07.517Z,99090.39
2019-05-07T06:10:52.662Z,99088.36
2019-05-07T06:13:24.474Z,99082.33
2019-05-07T06:15:56.479Z,99081.63
2019-05-07T06:18:37.560Z,99086.83
2019-05-07T06:21:15.283Z,99083.91
2019-05-07T06:23:47.212Z,99083.12
2019-05-07T06:26:14.070Z,99081.80
2019-05-07T06:28:42.568Z,99084.53
2019-05-07T06:31:10.049Z,99090.46
2019-05-07T06:33:37.050Z,99094.26
2019-05-07T06:36:04.417Z,99093.56
2019-05-07T06:38:33.100Z,99095.02
2019-05-07T06:41:09.168Z,99093.23
2019-05-07T06:43:54.074Z,99095.66
2019-05-07T06:46:23.057Z,99091.94
2019-05-07T06:48:49.991Z,99089.55
2019-05-07T06:51:17.623Z,99093.11
2019-05-07T06:53:44.843Z,99091.27
2019-05-07T06:56:12.231Z,99095.88
2019-05-07T06:58:46.946Z,99096.45
2019-05-07T07:01:32.271Z,99090.27
2019-05-07T07:03:59.484Z,99083.54
2019-05-07T07:06:28.489Z,99087.05
2019-05-07T07:09:14.186Z,99087.33
2019-05-07T07:11:45.998Z,99087.06
2019-05-07T07:14:14.013Z,99079.78
2019-05-07T07:16:42.046Z,99076.27
2019-05-07T07:19:09.250Z,99075.96
2019-05-07T07:21:36.484Z,99079.45
2019-05-07T07:24:03.360Z,99072.38
2019-05-07T07:26:32.667Z,99066.67
2019-05-07T07:29:01.890Z,99063.35
2019-05-07T07:31:33.287Z,99064.89
2019-05-07T07:34:02.396Z,99065.69
2019-05-07T07:36:32.084Z,99061.01
2019-05-07T07:38:59.403Z,99057.11
2019-05-07T07:41:45.750Z,99052.75
2019-05-07T07:44:13.218Z,99055.69
2019-05-07T07:46:42.401Z,99055.56
2019-05-07T07:49:14.911Z,99051.50
2019-05-07T07:51:42.726Z,99051.16
2019-05-07T07:54:13.108Z,99052.98
2019-05-07T07:56:50.135Z,99048.77
2019-05-07T07:59:32.793Z,99046.17
2019-05-07T08:02:01.760Z,99045.50
2019-05-07T08:04:28.939Z,99046.20
2019-05-07T08:06:57.941Z,99040.98
2019-05-07T08:09:25.889Z,99037.70
2019-05-07T08:11:53.034Z,99037.17
2019-05-07T08:14:22.287Z,99033.95
2019-05-07T08:16:52.863Z,99030.66
2019-05-07T08:19:22.769Z,99032.58
2019-05-07T08:21:49.550Z,99022.27
2019-05-07T08:24:16.803Z,99024.87
2019-05-07T08:26:43.992Z,99021.37
2019-05-07T08:29:13.344Z,99023.03
2019-05-07T08:31:57.663Z,99021.05
2019-05-07T08:34:26.564Z,99016.72
2019-05-07T08:36:53.538Z,99019.09
2019-05-07T08:39:24.720Z,99006.42
2019-05-07T08:41:49.447Z,99003.11
2019-05-07T08:44:27.362Z,99007.75
2019-05-07T08:47:12.959Z,99000.56
2019-05-07T08:49:43.385Z,99005.06
2019-05-07T08:52:11.970Z,98996.88
2019-05-07T08:54:39.729Z,99000.03
2019-05-07T08:57:06.976Z,98985.78
2019-05-07T08:59:34.978Z,98985.47
2019-05-07T09:02:03.229Z,98987.58
2019-05-07T09:04:32.377Z,98982.73
2019-05-07T09:07:02.565Z,98978.41
2019-05-07T09:09:32.081Z,98975.44
2019-05-07T09:11:58.868Z,98975.52
2019-05-07T09:14:26.342Z,98973.73
2019-05-07T09:16:54.151Z,98979.05
2019-05-07T09:19:21.721Z,98979.58
2019-05-07T09:21:49.505Z,98981.83
2019-05-07T09:24:16.332Z,98981.07
2019-05-07T09:26:45.202Z,98977.47
2019-05-07T09:29:17.875Z,98978.13
2019-05-07T09:31:47.716Z,98974.89
2019-05-07T09:34:14.910Z,98967.22
2019-05-07T09:36:43.849Z,98965.99
2019-05-07T09:39:12.071Z,98961.61
2019-05-07T09:41:41.671Z,98962.47
2019-05-07T09:44:09.144Z,98961.20
2019-05-07T09:46:37.131Z,98963.89
2019-05-07T09:49:04.973Z,98966.95
2019-05-07T09:51:32.853Z,98955.67
2019-05-07T09:54:02.396Z,98957.03
2019-05-07T09:56:29.288Z,98954.23
2019-05-07T09:58:56.570Z,98950.70
2019-05-07T10:01:23.767Z,98950.70
2019-05-07T10:03:51.824Z,98955.22
2019-05-07T10:06:18.926Z,98949.53
2019-05-07T10:08:46.353Z,98942.68
2019-05-07T10:11:15.555Z,98948.33
2019-05-07T10:14:04.363Z,98946.52
2019-05-07T10:16:33.478Z,98947.69
2019-05-07T10:19:05.193Z,98954.69
2019-05-07T10:21:34.511Z,98957.34
2019-05-07T10:24:02.473Z,98944.72
2019-05-07T10:26:29.568Z,98945.87
2019-05-07T10:29:02.136Z,98947.38
2019-05-07T10:31:29.090Z,98944.05
2019-05-07T10:33:56.203Z,98938.27
2019-05-07T10:36:23.112Z,98930.32
2019-05-07T10:38:51.916Z,98925.09
2019-05-07T10:41:19.498Z,98917.45
2019-05-07T10:43:48.491Z,98913.69
2019-05-07T10:46:20.027Z,98914.37
2019-05-07T10:49:05.678Z,98914.33
2019-05-07T10:51:35.095Z,98909.57
2019-05-07T10:54:05.003Z,98907.05
2019-05-07T10:56:32.673Z,98902.81
2019-05-07T10:59:02.655Z,98898.23
2019-05-07T11:01:34.178Z,98906.87
2019-05-07T11:04:02.234Z,98900.55
2019-05-07T11:06:29.476Z,98899.30
2019-05-07T11:08:57.082Z,98897.41
2019-05-07T11:11:23.976Z,98897.69
2019-05-07T11:13:55.539Z,98894.18
2019-05-07T11:16:22.187Z,98884.66
2019-05-07T11:18:51.873Z,98877.42
2019-05-07T11:21:33.340Z,98877.99
2019-05-07T11:24:03.106Z,98871.69
2019-05-07T11:26:30.262Z,98866.53
2019-05-07T11:28:57.041Z,98864.00
2019-05-07T11:31:23.970Z,98861.39
2019-05-07T11:33:52.109Z,98854.08
2019-05-07T11:36:19.473Z,98856.99
2019-05-07T11:38:46.622Z,98860.13
2019-05-07T11:41:14.122Z,98861.40
2019-05-07T11:43:43.838Z,98853.20
2019-05-07T11:46:24.294Z,98847.92
2019-05-07T11:48:53.248Z,98848.54
2019-05-07T11:51:27.962Z,98841.76
2019-05-07T11:54:08.629Z,98841.28
2019-05-07T11:56:36.433Z,98829.67
2019-05-07T11:59:04.466Z,98828.56
2019-05-07T12:01:43.571Z,98829.19
2019-05-07T12:04:05.313Z,98824.58
2019-05-07T12:06:32.701Z,98814.23
2019-05-07T12:08:59.961Z,98818.99
2019-05-07T12:11:27.020Z,98820.36
2019-05-07T12:13:57.238Z,98825.49
2019-05-07T12:16:23.613Z,98817.83
2019-05-07T12:18:55.452Z,98812.98
2019-05-07T12:21:24.309Z,98807.72
2019-05-07T12:23:52.531Z,98801.95
2019-05-07T12:26:22.133Z,98803.07
2019-05-07T12:28:49.032Z,98793.89
2019-05-07T12:31:22.453Z,98794.45
2019-05-07T12:34:02.439Z,98792.91
2019-05-07T12:36:31.876Z,98791.45
2019-05-07T12:38:59.097Z,98787.55
2019-05-07T12:41:29.635Z,98779.48
2019-05-07T12:44:04.694Z,98787.08
2019-05-07T12:46:33.458Z,98780.63
2019-05-07T12:49:03.184Z,98782.06
2019-05-07T12:51:37.119Z,98772.38
2019-05-07T12:54:06.051Z,98771.81
2019-05-07T12:56:36.042Z,98779.72
2019-05-07T12:59:04.803Z,98779.52
2019-05-07T13:01:35.138Z,98774.16
2019-05-07T13:04:16.193Z,98766.86
2019-05-07T13:06:45.702Z,98772.19
2019-05-07T13:09:13.101Z,98768.90
2019-05-07T13:11:42.501Z,98766.42
2019-05-07T13:14:09.823Z,98761.02
2019-05-07T13:16:36.636Z,98752.53
2019-05-07T13:19:03.548Z,98756.59
2019-05-07T13:21:33.180Z,98747.28
2019-05-07T13:23:59.785Z,98748.73
2019-05-07T13:26:26.953Z,98746.15
2019-05-07T13:28:54.597Z,98749.81
2019-05-07T13:31:27.719Z,98743.94
2019-05-07T13:33:58.323Z,98752.31
2019-05-07T13:36:26.218Z,98747.38
2019-05-07T13:38:55.944Z,98747.98
2019-05-07T13:41:54.311Z,98739.41
2019-05-07T13:44:22.881Z,98738.70
2019-05-07T13:46:54.091Z,98740.92
2019-05-07T13:49:22.002Z,98725.20
2019-05-07T13:52:02.880Z,98720.82
2019-05-07T13:54:21.795Z,98715.13
2019-05-07T13:56:48.917Z,98715.09
2019-05-07T13:59:16.170Z,98710.21
2019-05-07T14:01:48.048Z,98707.55
2019-05-07T14:04:15.128Z,98704.72
2019-05-07T14:06:42.978Z,98697.98
2019-05-07T14:09:15.158Z,98691.22
2019-05-07T14:11:42.646Z,98690.48
2019-05-07T14:14:09.729Z,98689.79
2019-05-07T14:16:36.868Z,98687.63
2019-05-07T14:19:04.326Z,98689.92
2019-05-07T14:21:32.497Z,98689.77
2019-05-07T14:24:00.538Z,98686.77
2019-05-07T14:26:28.618Z,98683.33
2019-05-07T14:28:57.063Z,98684.11
2019-05-07T14:31:24.044Z,98678.14
2019-05-07T14:34:02.873Z,98670.94
2019-05-07T14:36:34.785Z,98669.68
2019-05-07T14:39:09.167Z,98668.05
2019-05-07T14:41:43.287Z,98668.28
2019-05-07T14:44:12.128Z,98662.89
2019-05-07T14:46:47.359Z,98665.99
2019-05-07T14:49:08.895Z,98658.30
2019-05-07T14:51:35.979Z,98663.52
2019-05-07T14:54:03.397Z,98652.33
2019-05-07T14:56:32.338Z,98649.83
2019-05-07T14:59:02.160Z,98653.30
2019-05-07T15:01:30.751Z,98644.67
2019-05-07T15:04:02.148Z,98643.29
2019-05-07T15:06:29.241Z,98646.45
2019-05-07T15:08:56.405Z,98646.80
2019-05-07T15:11:23.967Z,98647.56
2019-05-07T15:13:52.201Z,98634.88
2019-05-07T15:16:19.409Z,98633.28
2019-05-07T15:18:49.495Z,98632.28
2019-05-07T15:21:17.055Z,98635.00
2019-05-07T15:23:45.053Z,98626.69
2019-05-07T15:26:12.843Z,98626.45
2019-05-07T15:28:42.073Z,98620.42
2019-05-07T15:31:12.319Z,98614.73
2019-05-07T15:33:41.660Z,98618.84
2019-05-07T15:36:08.651Z,98621.87
2019-05-07T15:38:35.672Z,98615.18
2019-05-07T15:41:04.639Z,98612.72
2019-05-07T15:43:32.410Z,98608.33
2019-05-07T15:46:04.364Z,98608.65
2019-05-07T15:48:32.704Z,98609.67
2019-05-07T15:51:00.381Z,98601.97
2019-05-07T15:53:33.623Z,98601.19
2019-05-07T15:56:01.798Z,98603.02
2019-05-07T15:58:29.102Z,98608.91
2019-05-07T16:00:55.968Z,98601.50
2019-05-07T16:03:43.895Z,98595.72
2019-05-07T16:06:12.717Z,98599.35
2019-05-07T16:08:44.583Z,98588.63
2019-05-07T16:11:14.575Z,98592.09
2019-05-07T16:14:00.367Z,98590.57
2019-05-07T16:16:30.208Z,98584.68
2019-05-07T16:19:06.854Z,98580.94
2019-05-07T16:21:33.988Z,98576.80
2019-05-07T16:24:00.839Z,98576.92
2019-05-07T16:26:27.727Z,98566.28
2019-05-07T16:28:58.251Z,98571.45
2019-05-07T16:31:25.448Z,98568.67
2019-05-07T16:33:53.878Z,98567.08
2019-05-07T16:36:21.954Z,98568.53
2019-05-07T16:38:49.387Z,98566.50
2019-05-07T16:41:17.810Z,98561.82
2019-05-07T16:43:45.290Z,98555.51
2019-05-07T16:46:12.202Z,98553.08
2019-05-07T16:48:39.448Z,98551.68
2019-05-07T16:51:06.608Z,98545.17
2019-05-07T16:53:35.355Z,98544.52
2019-05-07T16:56:07.168Z,98536.91
2019-05-07T16:58:36.736Z,98538.12
2019-05-07T17:01:11.598Z,98543.11
2019-05-07T17:03:42.592Z,98542.21
2019-05-07T17:06:09.960Z,98544.39
2019-05-07T17:08:42.354Z,98539.02
2019-05-07T17:11:09.696Z,98537.84
2019-05-07T17:13:37.364Z,98529.11
2019-05-07T17:16:05.263Z,98531.02
2019-05-07T17:18:32.787Z,98526.00
2019-05-07T17:21:02.346Z,98525.77
2019-05-07T17:23:41.370Z,98529.38
2019-05-07T17:25:58.541Z,98528.13
2019-05-07T17:28:27.244Z,98519.33
2019-05-07T17:30:54.379Z,98524.30
2019-05-07T17:33:23.111Z,98517.91
2019-05-07T17:35:51.801Z,98518.76
2019-05-07T17:38:19.803Z,98518.45
2019-05-07T17:40:47.308Z,98520.78
2019-05-07T17:43:14.252Z,98516.64
2019-05-07T17:45:42.976Z,98523.88
2019-05-07T17:48:12.168Z,98521.80
2019-05-07T17:50:42.725Z,98516.19
2019-05-07T17:53:11.949Z,98512.52
2019-05-07T17:55:39.516Z,98514.06
2019-05-07T17:58:08.177Z,98514.06
2019-05-07T18:00:36.221Z,98509.50
2019-05-07T18:03:06.491Z,98510.39
2019-05-07T18:05:33.914Z,98511.86
2019-05-07T18:08:02.073Z,98507.06
2019-05-07T18:10:31.815Z,98506.36
2019-05-07T18:12:59.289Z,98509.50
2019-05-07T18:15:27.449Z,98504.98
2019-05-07T18:18:08.643Z,98498.34
2019-05-07T18:20:35.852Z,98491.81
2019-05-07T18:23:03.016Z,98497.17
2019-05-07T18:25:32.206Z,98497.98
2019-05-07T18:28:01.658Z,98492.55
2019-05-07T18:30:28.849Z,98490.64
2019-05-07T18:33:02.410Z,98499.72
2019-05-07T18:35:29.784Z,98504.85
2019-05-07T18:38:02.595Z,98506.54
2019-05-07T18:40:32.738Z,98514.77
2019-05-07T18:43:00.265Z,98519.59
2019-05-07T18:45:29.056Z,98517.51
2019-05-07T18:47:56.829Z,98517.16
2019-05-07T18:50:26.935Z,98521.39
2019-05-07T18:52:55.510Z,98516.84
2019-05-07T18:55:22.899Z,98517.61
2019-05-07T18:57:51.824Z,98518.93
2019-05-07T19:00:22.092Z,98521.28
2019-05-07T19:02:49.562Z,98520.45
2019-05-07T19:05:19.431Z,98517.94
2019-05-07T19:07:46.165Z,98527.83
2019-05-07T19:10:14.017Z,98528.84
2019-05-07T19:12:43.044Z,98528.25
2019-05-07T19:15:12.436Z,98535.83
2019-05-07T19:17:39.846Z,98534.75
2019-05-07T19:20:07.803Z,98531.30
2019-05-07T19:22:37.762Z,98528.88
2019-05-07T19:25:04.564Z,98525.27
2019-05-07T19:27:32.713Z,98528.22
2019-05-07T19:30:00.390Z,98526.25
2019-05-07T19:32:27.603Z,98532.33
2019-05-07T19:34:58.616Z,98531.01
2019-05-07T19:37:25.494Z,98526.31
2019-05-07T19:39:52.487Z,98525.05
2019-05-07T19:42:19.275Z,98525.13
2019-05-07T19:44:46.746Z,98532.64
2019-05-07T19:47:14.008Z,98533.65
2019-05-07T19:49:41.882Z,98533.62
2019-05-07T19:52:08.982Z,98532.38
2019-05-07T19:54:35.968Z,98535.41
2019-05-07T19:57:03.895Z,98527.77
2019-05-07T19:59:32.650Z,98523.56
2019-05-07T20:02:03.146Z,98523.37
2019-05-07T20:04:31.987Z,98519.20
2019-05-07T20:06:59.106Z,98521.20
2019-05-07T20:09:32.551Z,98509.83
2019-05-07T20:12:02.605Z,98512.18
2019-05-07T20:14:29.048Z,98506.50
2019-05-07T20:16:56.422Z,98508.61
2019-05-07T20:19:23.496Z,98502.59
2019-05-07T20:21:53.047Z,98503.80
2019-05-07T20:24:23.465Z,98494.86
2019-05-07T20:26:52.744Z,98493.20
2019-05-07T20:29:22.717Z,98492.85
2019-05-07T20:31:53.252Z,98484.73
2019-05-07T20:34:22.127Z,98479.88
2019-05-07T20:36:51.849Z,98474.12
2019-05-07T20:39:18.957Z,98482.59
2019-05-07T20:41:47.797Z,98482.14
2019-05-07T20:44:14.600Z,98487.24
2019-05-07T20:46:43.012Z,98487.64
2019-05-07T20:49:10.257Z,98484.65
2019-05-07T20:51:37.491Z,98478.87
2019-05-07T20:54:09.431Z,98481.77
2019-05-07T20:56:42.025Z,98475.50
2019-05-07T20:59:09.599Z,98474.72
2019-05-07T21:01:37.564Z,98466.73
2019-05-07T21:04:06.352Z,98462.13
2019-05-07T21:06:35.336Z,98455.11
2019-05-07T21:09:06.711Z,98452.92
2019-05-07T21:11:33.698Z,98452.57
2019-05-07T21:14:03.335Z,98440.48
2019-05-07T21:16:33.687Z,98437.63
2019-05-07T21:19:03.018Z,98433.25
2019-05-07T21:21:30.019Z,98426.69
2019-05-07T21:23:56.931Z,98416.27
2019-05-07T21:26:23.949Z,98407.34
2019-05-07T21:28:53.659Z,98399.41
2019-05-07T21:31:22.818Z,98391.37
2019-05-07T21:33:52.198Z,98382.06
2019-05-07T21:36:18.644Z,98385.35
2019-05-07T21:38:45.651Z,98392.23
2019-05-07T21:41:15.390Z,98403.57
2019-05-07T21:43:46.221Z,98402.70
2019-05-07T21:46:13.749Z,98402.78
2019-05-07T21:48:40.709Z,98405.62
2019-05-07T21:51:08.160Z,98410.50
2019-05-07T21:53:36.958Z,98408.83
2019-05-07T21:56:12.340Z,98406.25
2019-05-07T21:58:45.145Z,98406.53
2019-05-07T22:01:16.389Z,98402.30
2019-05-07T22:03:46.112Z,98399.87
2019-05-07T22:06:15.963Z,98402.66
2019-05-07T22:08:43.337Z,98395.80
2019-05-07T22:11:12.273Z,98388.14
2019-05-07T22:13:39.258Z,98375.05
2019-05-07T22:16:06.241Z,98369.12
2019-05-07T22:18:34.588Z,98374.00
2019-05-07T22:21:02.944Z,98373.50
2019-05-07T22:23:32.358Z,98356.96
2019-05-07T22:26:16.472Z,98346.16
2019-05-07T22:28:33.140Z,98350.71
2019-05-07T22:31:12.682Z,98352.70
2019-05-07T22:33:44.043Z,98343.70
2019-05-07T22:36:12.684Z,98345.14
2019-05-07T22:38:40.078Z,98347.63
2019-05-07T22:41:07.319Z,98349.98
2019-05-07T22:43:34.238Z,98347.77
2019-05-07T22:46:01.226Z,98343.56
2019-05-07T22:48:28.091Z,98330.98
2019-05-07T22:50:56.909Z,98335.77
2019-05-07T22:53:24.027Z,98327.28
2019-05-07T22:55:52.555Z,98330.63
2019-05-07T22:58:22.200Z,98317.45
2019-05-07T23:00:51.337Z,98316.10
2019-05-07T23:03:20.054Z,98313.58
2019-05-07T23:05:49.209Z,98299.22
2019-05-07T23:08:16.224Z,98298.24
2019-05-07T23:10:45.301Z,98290.10
2019-05-07T23:13:13.035Z,98291.34
2019-05-07T23:15:40.177Z,98300.73
2019-05-07T23:18:06.938Z,98296.14
2019-05-07T23:20:33.719Z,98289.83
2019-05-07T23:23:02.860Z,98290.61
2019-05-07T23:25:32.072Z,98287.58
2019-05-07T23:28:04.900Z,98289.91
2019-05-07T23:30:30.466Z,98289.13
2019-05-07T23:33:02.405Z,98280.78
2019-05-07T23:35:32.862Z,98282.85
2019-05-07T23:38:02.459Z,98277.02
2019-05-07T23:40:32.372Z,98277.86
2019-05-07T23:43:04.608Z,98264.76
2019-05-07T23:45:39.441Z,98264.06
2019-05-07T23:48:07.950Z,98263.69
2019-05-07T23:50:35.138Z,98261.19
2019-05-07T23:53:02.340Z,98257.20
2019-05-07T23:55:31.817Z,98256.05
2019-05-07T23:57:59.009Z,98259.36
